Terminal Aerodrome Forecast
Issued by NWS

Home | Current Version | Previous Version | Text Only | Print | Product List | Glossary On
Versions: 1 2 3 4 5 6 7 8 9 10 11 12 13 14 15 16 17 18 19 20 21 22 23 24 25
000
FTUS46 KLOX 210800 AAA
TAFLAX
TAF AMD
KLAX 210851Z 2109/2212 VRB03KT P6SM SCT018 BKN200
     FM211200 04006KT P6SM BKN200
     FM212000 26008KT P6SM SCT200
     FM220500 35006KT P6SM SCT200
     FM221000 VRB03KT P6SM SCT200=

USA.gov is the U.S. government's official web portal to all federal, state and local government web resources and services.